Time;durP1;ratioP1;P1;durP2;ratioP2;P2;SDS_P1;SDS_P2;PMS_P1;PMS_P2;Temp;Humidity;BMP_temperature;BMP_pressure;BME280_temperature;BME280_humidity;BME280_pressure;Samples;Min_cycle;Max_cycle;Signal;HPM_P1;HPM_P2
2022/09/19 00:01:53;;;;;;;3.03;1.30;;;9.90;99.90;;;;;;4968334;28;20426;-91
2022/09/19 00:04:27;;;;;;;4.20;1.30;;;9.90;99.90;;;;;;4953059;29;20396;-88
2022/09/19 00:06:55;;;;;;;2.65;1.20;;;9.80;99.90;;;;;;4953739;29;20404;-90
2022/09/19 00:09:26;;;;;;;3.33;1.10;;;9.70;99.90;;;;;;4953131;29;20428;-89
2022/09/19 00:11:55;;;;;;;2.25;1.35;;;9.70;99.90;;;;;;4952867;29;20409;-90
2022/09/19 00:14:27;;;;;;;3.00;1.20;;;9.70;99.90;;;;;;4952846;29;20401;-90
2022/09/19 00:16:57;;;;;;;2.50;1.20;;;9.80;99.90;;;;;;4953321;29;20507;-91
2022/09/19 00:19:26;;;;;;;1.87;1.07;;;9.80;99.90;;;;;;5294748;23;20423;-84
2022/09/19 00:21:56;;;;;;;2.72;1.30;;;9.80;99.90;;;;;;4952438;28;20405;-84
2022/09/19 00:27:11;;;;;;;3.33;1.33;;;9.80;99.90;;;;;;4953404;28;20396;-85
2022/09/19 00:29:42;;;;;;;2.55;1.30;;;9.80;99.90;;;;;;4953044;28;20396;-86
2022/09/19 00:32:14;;;;;;;1.70;1.37;;;9.80;99.90;;;;;;4957458;29;20396;-86
2022/09/19 00:34:47;;;;;;;2.00;1.40;;;9.80;99.90;;;;;;4957162;29;20573;-85
2022/09/19 00:37:17;;;;;;;2.60;1.33;;;9.80;99.90;;;;;;4957102;28;20416;-85
2022/09/19 00:39:45;;;;;;;1.73;1.38;;;9.80;99.90;;;;;;4956004;29;20396;-85
2022/09/19 00:42:16;;;;;;;2.47;1.40;;;9.70;99.90;;;;;;4956083;29;20477;-83
2022/09/19 00:44:43;;;;;;;2.42;1.50;;;9.70;99.90;;;;;;4959247;28;20471;-83
2022/09/19 00:47:18;;;;;;;2.70;1.30;;;9.70;99.90;;;;;;4956614;28;20396;-83
2022/09/19 00:49:48;;;;;;;2.25;1.60;;;9.70;99.90;;;;;;4955833;29;20423;-85
2022/09/19 00:52:46;;;;;;;1.80;1.40;;;9.70;99.90;;;;;;4971809;28;20434;-85
2022/09/19 00:55:14;;;;;;;2.42;1.50;;;9.70;99.90;;;;;;4957834;28;20466;-86
2022/09/19 00:58:03;;;;;;;2.45;1.30;;;9.70;99.90;;;;;;4975048;28;20410;-86
2022/09/19 01:00:32;;;;;;;3.05;1.60;;;9.70;99.90;;;;;;4975952;28;20560;-84
2022/09/19 01:03:00;;;;;;;2.33;1.40;;;9.70;99.90;;;;;;4991186;28;20398;-85
2022/09/19 01:05:42;;;;;;;1.83;1.48;;;9.70;99.90;;;;;;4974962;28;20866;-85
2022/09/19 01:08:39;;;;;;;4.07;1.50;;;9.70;99.90;;;;;;4969973;28;20518;-85
2022/09/19 01:11:26;;;;;;;3.50;1.50;;;9.70;99.90;;;;;;4990790;28;20417;-85
2022/09/19 01:14:00;;;;;;;2.38;1.50;;;9.70;99.90;;;;;;4990715;28;20402;-85
2022/09/19 01:16:50;;;;;;;1.63;1.40;;;9.70;99.90;;;;;;5006998;28;20450;-85
2022/09/19 01:19:18;;;;;;;3.78;1.48;;;9.70;99.90;;;;;;5006464;28;20399;-84
2022/09/19 01:22:05;;;;;;;2.08;1.42;;;9.70;99.90;;;;;;4990647;28;20407;-85
2022/09/19 01:25:02;;;;;;;5.40;1.70;;;9.70;99.90;;;;;;5006653;28;20414;-85
2022/09/19 01:28:09;;;;;;;3.17;1.45;;;9.70;99.90;;;;;;4975339;28;20529;-85
2022/09/19 01:31:16;;;;;;;1.60;1.30;;;9.70;99.90;;;;;;4990791;28;20493;-86
2022/09/19 01:33:42;;;;;;;3.22;1.55;;;9.70;99.90;;;;;;5006672;28;20414;-84
2022/09/19 01:36:14;;;;;;;2.50;1.50;;;9.70;99.90;;;;;;4990289;28;20398;-83
2022/09/19 01:38:45;;;;;;;4.13;1.50;;;9.70;99.90;;;;;;4990259;28;20445;-84
2022/09/19 01:41:14;;;;;;;2.38;1.63;;;9.70;99.90;;;;;;4988800;28;20409;-85
2022/09/19 01:43:42;;;;;;;3.25;1.77;;;9.70;99.90;;;;;;4973944;28;20403;-83
2022/09/19 01:46:26;;;;;;;2.47;1.60;;;9.70;99.90;;;;;;4974007;28;20434;-83
2022/09/19 01:49:06;;;;;;;5.05;1.65;;;9.70;99.90;;;;;;4974093;28;20415;-82
2022/09/19 01:51:45;;;;;;;2.58;1.60;;;9.70;99.90;;;;;;4975032;28;20481;-84
2022/09/19 01:54:43;;;;;;;2.30;1.50;;;9.70;99.90;;;;;;4975002;28;20869;-85
2022/09/19 01:57:43;;;;;;;4.65;1.60;;;9.70;99.90;;;;;;4973545;28;20430;-86
2022/09/19 02:00:18;;;;;;;3.03;1.50;;;9.70;99.90;;;;;;4974362;28;20407;-84
2022/09/19 02:03:05;;;;;;;2.73;1.60;;;9.70;99.90;;;;;;4973775;28;20402;-86
2022/09/19 02:06:00;;;;;;;2.13;1.73;;;9.70;99.90;;;;;;4989881;28;20430;-83
2022/09/19 02:08:58;;;;;;;2.88;1.60;;;9.80;99.90;;;;;;4973603;28;20461;-84
2022/09/19 02:11:42;;;;;;;4.25;1.83;;;9.70;99.90;;;;;;4974915;28;20399;-83
2022/09/19 02:14:18;;;;;;;2.10;1.50;;;9.70;99.90;;;;;;4962628;28;20511;-86
2022/09/19 02:17:13;;;;;;;3.78;1.70;;;9.70;99.90;;;;;;4953834;29;20404;-85
2022/09/19 02:19:51;;;;;;;2.30;1.35;;;9.70;99.90;;;;;;4969751;28;20400;-84
2022/09/19 02:22:30;;;;;;;3.63;1.70;;;9.70;99.90;;;;;;4954047;29;20857;-83
2022/09/19 02:25:05;;;;;;;2.92;2.05;;;9.70;99.90;;;;;;4954065;29;20455;-83
2022/09/19 02:27:43;;;;;;;3.20;1.70;;;9.80;99.90;;;;;;4954103;28;20419;-84
2022/09/19 02:30:13;;;;;;;2.83;1.80;;;9.80;99.90;;;;;;4953916;29;20770;-86
2022/09/19 02:32:46;;;;;;;2.75;1.80;;;9.80;99.90;;;;;;4969917;28;20407;-84
2022/09/19 02:35:19;;;;;;;2.57;1.70;;;9.80;99.90;;;;;;4959052;28;20487;-83
2022/09/19 02:38:01;;;;;;;3.35;1.77;;;9.80;99.90;;;;;;4954849;29;20418;-84
2022/09/19 02:40:35;;;;;;;3.17;1.80;;;9.80;99.90;;;;;;4953897;29;20483;-81
2022/09/19 02:43:05;;;;;;;2.22;1.77;;;9.70;99.90;;;;;;4969766;28;20412;-84
2022/09/19 02:45:41;;;;;;;2.10;1.65;;;9.70;99.90;;;;;;4969455;28;20657;-85
2022/09/19 02:48:26;;;;;;;2.47;1.70;;;9.80;99.90;;;;;;4969616;28;20436;-85
2022/09/19 02:51:09;;;;;;;4.50;1.92;;;9.80;99.90;;;;;;4953546;29;20487;-84
2022/09/19 02:53:45;;;;;;;2.10;1.65;;;9.80;99.90;;;;;;4971801;28;20424;-84
2022/09/19 02:56:21;;;;;;;3.58;2.13;;;9.80;99.90;;;;;;4973801;28;20408;-84
2022/09/19 02:59:16;;;;;;;2.73;2.00;;;9.80;99.90;;;;;;4954472;29;20408;-85
2022/09/19 03:01:58;;;;;;;4.35;2.00;;;9.80;99.90;;;;;;4952936;28;20444;-85
2022/09/19 03:04:35;;;;;;;3.50;1.83;;;9.80;99.90;;;;;;4953199;29;20404;-85
2022/09/19 03:07:13;;;;;;;2.92;1.83;;;9.80;99.90;;;;;;4955003;28;20543;-84
2022/09/19 03:10:06;;;;;;;3.30;1.85;;;9.80;99.90;;;;;;4953121;29;20404;-85
2022/09/19 03:12:52;;;;;;;3.17;1.70;;;9.80;99.90;;;;;;4954114;29;20400;-86
2022/09/19 03:15:33;;;;;;;3.67;2.10;;;9.80;99.90;;;;;;4952918;29;20903;-83
2022/09/19 03:18:02;;;;;;;2.30;2.00;;;9.80;99.90;;;;;;4975768;28;20422;-85
2022/09/19 03:20:36;;;;;;;4.22;1.88;;;9.80;99.90;;;;;;4968754;28;20440;-83
2022/09/19 03:23:06;;;;;;;2.75;1.83;;;9.80;99.90;;;;;;4984983;28;20398;-85
2022/09/19 03:25:34;;;;;;;3.80;1.70;;;9.80;99.90;;;;;;4988343;28;20413;-83
2022/09/19 03:28:03;;;;;;;3.33;1.83;;;9.80;99.90;;;;;;4988301;28;20417;-82
2022/09/19 03:30:31;;;;;;;3.60;2.20;;;9.80;99.90;;;;;;4988337;28;20394;-84
2022/09/19 03:32:59;;;;;;;2.88;2.00;;;9.70;99.90;;;;;;4988309;28;20431;-86
2022/09/19 03:35:27;;;;;;;2.10;1.77;;;9.70;99.90;;;;;;4988251;28;20453;-86
2022/09/19 03:37:55;;;;;;;2.70;2.00;;;9.70;99.90;;;;;;4971902;28;20410;-85
2022/09/19 03:40:22;;;;;;;3.57;2.00;;;9.80;99.90;;;;;;4988410;28;20398;-84
2022/09/19 03:42:52;;;;;;;3.15;1.90;;;9.80;99.90;;;;;;4971950;28;20433;-84
2022/09/19 03:45:22;;;;;;;4.22;2.28;;;9.70;99.90;;;;;;4971792;28;20395;-85
2022/09/19 03:47:50;;;;;;;3.75;2.03;;;9.70;99.90;;;;;;4972026;28;20418;-85
2022/09/19 03:50:17;;;;;;;2.53;2.03;;;9.70;99.90;;;;;;4967267;28;20491;-85
2022/09/19 03:53:01;;;;;;;5.57;2.70;;;9.70;99.90;;;;;;4968886;28;20407;-85
2022/09/19 03:55:28;;;;;;;3.95;2.40;;;9.80;99.90;;;;;;4982550;28;20406;-85
2022/09/19 03:57:56;;;;;;;5.30;2.30;;;9.80;99.90;;;;;;4987910;28;20425;-85
2022/09/19 04:00:24;;;;;;;3.10;2.03;;;9.70;99.90;;;;;;4972937;28;20426;-84
2022/09/19 04:02:53;;;;;;;4.85;2.10;;;9.80;99.90;;;;;;4955862;28;20417;-84
2022/09/19 04:05:21;;;;;;;3.85;2.53;;;9.70;99.90;;;;;;4963988;28;20400;-83
2022/09/19 04:07:48;;;;;;;4.60;2.70;;;9.70;99.90;;;;;;4975918;28;20394;-84
2022/09/19 04:10:16;;;;;;;3.80;2.30;;;9.70;99.90;;;;;;4992105;28;20804;-85
2022/09/19 04:12:46;;;;;;;3.90;2.50;;;9.70;99.90;;;;;;4975587;28;20409;-83
2022/09/19 04:15:16;;;;;;;4.95;2.20;;;9.70;99.90;;;;;;4975642;28;20825;-86
2022/09/19 04:17:44;;;;;;;2.83;2.20;;;9.80;99.90;;;;;;4975468;28;20489;-85
2022/09/19 04:20:15;;;;;;;2.92;2.40;;;9.80;99.90;;;;;;4990957;28;20493;-84
2022/09/19 04:23:03;;;;;;;4.10;2.70;;;9.70;99.90;;;;;;4973381;28;20461;-84
2022/09/19 04:25:51;;;;;;;5.22;2.30;;;9.70;99.90;;;;;;4939924;28;20463;-84
2022/09/19 04:28:24;;;;;;;6.28;2.53;;;9.70;99.90;;;;;;4972026;28;20412;-84
2022/09/19 04:30:52;;;;;;;3.88;2.40;;;9.70;99.90;;;;;;4957176;29;20461;-84
2022/09/19 04:33:20;;;;;;;3.47;2.28;;;9.80;99.90;;;;;;4971910;28;20415;-85
2022/09/19 04:35:49;;;;;;;3.72;2.85;;;9.70;99.90;;;;;;4972021;28;20432;-84
2022/09/19 04:38:18;;;;;;;4.30;2.33;;;9.80;99.90;;;;;;4972341;28;20412;-84
2022/09/19 04:40:51;;;;;;;4.00;2.55;;;9.80;99.90;;;;;;4971902;28;20396;-84
2022/09/19 04:43:19;;;;;;;7.25;4.20;;;9.70;99.90;;;;;;4968255;28;20434;-84
2022/09/19 04:45:59;;;;;;;4.30;2.45;;;9.70;99.90;;;;;;4972078;28;20523;-85
2022/09/19 04:48:34;;;;;;;4.55;2.85;;;9.80;99.90;;;;;;4971919;28;20408;-86
2022/09/19 04:51:03;;;;;;;3.97;2.70;;;9.80;99.90;;;;;;4955788;29;20431;-85
2022/09/19 04:53:31;;;;;;;4.00;2.60;;;9.80;99.90;;;;;;4957495;28;20505;-85
2022/09/19 04:55:59;;;;;;;3.97;2.35;;;9.80;99.90;;;;;;4979801;28;20409;-83
2022/09/19 04:58:26;;;;;;;3.53;2.80;;;9.70;99.90;;;;;;4960972;28;20412;-85
2022/09/19 05:00:57;;;;;;;3.78;2.90;;;9.70;99.90;;;;;;4971696;28;20517;-84
2022/09/19 05:03:26;;;;;;;4.05;2.75;;;9.70;99.90;;;;;;4979249;28;20450;-84
2022/09/19 05:05:56;;;;;;;5.15;3.53;;;9.70;99.90;;;;;;4990717;28;20413;-85
2022/09/19 05:08:30;;;;;;;4.15;2.90;;;9.80;99.90;;;;;;4974791;28;20409;-85
2022/09/19 05:11:06;;;;;;;4.75;3.25;;;9.80;99.90;;;;;;4990941;28;21021;-86
2022/09/19 05:13:40;;;;;;;4.20;2.72;;;9.80;99.90;;;;;;4990958;28;20410;-85
2022/09/19 05:16:13;;;;;;;5.93;2.83;;;9.80;99.90;;;;;;4990383;28;20406;-86
2022/09/19 05:18:49;;;;;;;5.37;3.90;;;9.90;99.90;;;;;;4990479;28;20418;-85
2022/09/19 05:21:17;;;;;;;3.90;2.78;;;9.80;99.90;;;;;;4990735;28;20430;-86
2022/09/19 05:23:45;;;;;;;5.40;3.50;;;9.80;99.90;;;;;;4990676;28;20438;-85
2022/09/19 05:26:16;;;;;;;3.17;2.50;;;9.80;99.90;;;;;;4986322;28;21123;-82
2022/09/19 05:28:50;;;;;;;4.15;2.88;;;9.80;99.90;;;;;;4987734;28;20421;-83
2022/09/19 05:31:20;;;;;;;3.67;2.90;;;9.80;99.90;;;;;;4990113;28;20501;-84
2022/09/19 05:34:18;;;;;;;3.90;3.00;;;9.90;99.90;;;;;;4990637;28;20413;-85
2022/09/19 05:36:47;;;;;;;3.80;2.75;;;9.80;99.90;;;;;;4990395;28;20414;-85
2022/09/19 05:39:28;;;;;;;3.35;2.60;;;9.90;99.90;;;;;;4989992;28;20410;-85
2022/09/19 05:42:28;;;;;;;5.47;2.60;;;9.80;99.90;;;;;;4984603;28;20403;-85
2022/09/19 05:44:55;;;;;;;4.20;2.50;;;9.80;99.90;;;;;;4990386;28;20405;-84
2022/09/19 05:47:24;;;;;;;6.80;4.20;;;9.90;99.90;;;;;;4990318;28;21003;-84
2022/09/19 05:49:51;;;;;;;4.85;2.28;;;9.90;99.90;;;;;;4990427;28;20407;-84
2022/09/19 05:55:07;;;;;;;2.90;2.22;;;9.80;99.90;;;;;;4974245;28;20486;-86
2022/09/19 05:57:50;;;;;;;2.45;1.85;;;9.80;99.90;;;;;;4973914;28;20465;-84
2022/09/19 06:00:19;;;;;;;4.45;1.80;;;9.80;99.90;;;;;;4990078;28;20399;-85
2022/09/19 06:03:00;;;;;;;3.08;2.15;;;9.80;99.90;;;;;;4975042;28;20845;-85
2022/09/19 06:05:32;;;;;;;2.17;1.60;;;9.80;99.90;;;;;;4989893;28;20399;-85
2022/09/19 06:08:01;;;;;;;3.00;1.70;;;9.80;99.90;;;;;;4974998;28;20600;-85
2022/09/19 06:10:28;;;;;;;2.50;1.50;;;9.80;99.90;;;;;;4973742;28;20399;-86
2022/09/19 06:12:56;;;;;;;2.47;1.63;;;9.80;99.90;;;;;;4974970;28;20487;-85
2022/09/19 06:15:24;;;;;;;2.60;1.58;;;9.80;99.90;;;;;;4990144;28;20386;-86
2022/09/19 06:17:59;;;;;;;1.90;1.47;;;9.80;99.90;;;;;;4990149;28;20422;-86
2022/09/19 06:20:40;;;;;;;1.65;1.25;;;9.80;99.90;;;;;;4989891;28;20410;-86
2022/09/19 06:23:13;;;;;;;4.68;2.10;;;9.80;99.90;;;;;;4973540;28;20922;-86
2022/09/19 06:25:41;;;;;;;2.40;1.25;;;9.80;99.90;;;;;;4974793;28;20462;-84
2022/09/19 06:28:11;;;;;;;2.28;1.40;;;9.90;99.90;;;;;;4973078;28;20489;-86
2022/09/19 06:30:47;;;;;;;4.60;1.70;;;9.80;99.90;;;;;;4974622;28;20418;-85
2022/09/19 06:33:20;;;;;;;2.35;1.48;;;9.90;99.90;;;;;;4973331;28;20398;-87
2022/09/19 06:36:01;;;;;;;2.57;1.40;;;9.90;99.90;;;;;;4988490;28;20485;-86
2022/09/19 06:38:31;;;;;;;3.10;1.60;;;9.90;99.90;;;;;;4973502;28;20421;-84
2022/09/19 06:41:15;;;;;;;1.55;1.25;;;10.00;99.90;;;;;;4989133;28;20805;-84
2022/09/19 06:44:12;;;;;;;1.65;1.20;;;10.00;99.90;;;;;;4989606;28;20399;-85
2022/09/19 06:46:59;;;;;;;1.75;1.10;;;10.00;99.90;;;;;;4976942;28;20490;-84
2022/09/19 06:49:46;;;;;;;2.38;1.10;;;10.00;99.90;;;;;;4974398;28;20385;-85
2022/09/19 06:52:46;;;;;;;2.60;1.23;;;10.00;99.90;;;;;;4973800;28;20410;-83
2022/09/19 06:55:14;;;;;;;2.30;1.10;;;10.00;99.90;;;;;;4989475;28;20394;-86
2022/09/19 06:57:54;;;;;;;2.65;1.10;;;10.00;99.90;;;;;;4989580;28;20479;-83
2022/09/19 07:00:26;;;;;;;2.05;1.17;;;10.00;99.90;;;;;;4989013;28;20411;-84
2022/09/19 07:03:00;;;;;;;2.28;1.05;;;10.00;99.90;;;;;;4974404;28;20831;-82
2022/09/19 07:05:31;;;;;;;1.98;1.10;;;10.00;99.90;;;;;;4988765;28;20395;-82
2022/09/19 07:08:18;;;;;;;1.90;0.90;;;10.10;99.90;;;;;;4973848;28;20876;-87
2022/09/19 07:10:46;;;;;;;1.25;0.95;;;10.00;99.90;;;;;;4973766;28;21046;-84
2022/09/19 07:13:16;;;;;;;1.40;0.90;;;10.10;99.90;;;;;;4988646;28;20423;-83
2022/09/19 07:15:49;;;;;;;1.30;0.85;;;10.10;99.90;;;;;;4973746;28;20944;-84
2022/09/19 07:18:17;;;;;;;2.17;0.90;;;10.20;99.90;;;;;;4988820;28;20425;-83
2022/09/19 07:20:49;;;;;;;2.77;1.13;;;10.20;99.90;;;;;;4973392;28;20398;-82
2022/09/19 07:23:28;;;;;;;1.57;0.80;;;10.20;99.90;;;;;;4988661;28;20406;-83
2022/09/19 07:26:16;;;;;;;1.58;0.88;;;10.30;99.90;;;;;;4976240;28;20406;-85
2022/09/19 07:28:43;;;;;;;3.15;1.10;;;10.20;99.90;;;;;;4971171;28;21040;-85
2022/09/19 07:31:11;;;;;;;1.60;0.80;;;10.30;99.90;;;;;;4960827;28;20422;-82
2022/09/19 07:33:40;;;;;;;1.85;0.90;;;10.30;99.90;;;;;;4972521;28;20485;-85
2022/09/19 07:36:09;;;;;;;1.27;0.90;;;10.40;99.90;;;;;;4988416;28;20411;-86
2022/09/19 07:38:38;;;;;;;1.23;0.80;;;10.40;99.90;;;;;;4988467;28;20418;-87
2022/09/19 07:41:12;;;;;;;1.50;0.77;;;10.40;99.90;;;;;;4988376;28;20490;-83
2022/09/19 07:44:00;;;;;;;1.88;0.77;;;10.50;99.90;;;;;;4976086;28;20442;-86
2022/09/19 07:46:36;;;;;;;1.30;0.80;;;10.50;99.90;;;;;;4973157;28;20387;-84
2022/09/19 07:49:24;;;;;;;2.53;0.70;;;10.50;99.90;;;;;;4988582;28;20446;-84
2022/09/19 07:52:04;;;;;;;2.60;0.90;;;10.60;99.90;;;;;;4988124;28;20462;-85
2022/09/19 07:54:32;;;;;;;1.10;0.70;;;10.60;99.90;;;;;;4973106;28;20394;-88
2022/09/19 07:57:00;;;;;;;1.65;0.70;;;10.60;99.90;;;;;;4988085;28;20395;-86
2022/09/19 07:59:27;;;;;;;1.33;0.70;;;10.70;99.90;;;;;;4971908;28;20492;-85
2022/09/19 08:02:00;;;;;;;1.10;0.70;;;10.80;99.90;;;;;;4988192;28;20402;-85
2022/09/19 08:04:33;;;;;;;1.67;0.52;;;10.80;99.90;;;;;;4971902;28;20420;-86
2022/09/19 08:07:06;;;;;;;2.15;0.70;;;10.80;99.90;;;;;;4971807;28;20403;-85
2022/09/19 08:09:36;;;;;;;1.10;0.50;;;10.80;99.90;;;;;;4987944;28;20884;-86
2022/09/19 08:12:27;;;;;;;2.97;0.70;;;10.80;99.90;;;;;;4969886;28;20492;-85
2022/09/19 08:15:03;;;;;;;4.27;0.80;;;10.80;99.90;;;;;;4988249;28;20413;-86
2022/09/19 08:17:31;;;;;;;1.50;0.60;;;10.80;99.90;;;;;;4972859;28;20952;-83
2022/09/19 08:19:58;;;;;;;1.10;0.50;;;10.80;99.90;;;;;;4988073;28;20900;-85
2022/09/19 08:22:26;;;;;;;1.17;0.60;;;10.80;99.90;;;;;;4987975;28;20506;-85
2022/09/19 08:25:02;;;;;;;1.40;0.53;;;10.80;99.90;;;;;;4987895;28;20397;-85
2022/09/19 08:27:31;;;;;;;2.58;0.60;;;10.90;99.90;;;;;;4987759;28;20410;-84
2022/09/19 08:29:59;;;;;;;2.97;0.68;;;10.80;99.90;;;;;;4987868;28;20425;-85
2022/09/19 08:32:27;;;;;;;2.40;0.60;;;10.90;99.90;;;;;;4973137;28;20426;-87
2022/09/19 08:34:54;;;;;;;2.50;0.60;;;10.90;99.90;;;;;;4987813;28;20390;-86
2022/09/19 08:37:22;;;;;;;1.27;0.50;;;10.90;99.90;;;;;;4987787;28;20394;-84
2022/09/19 08:40:35;;;;;;;0.70;0.50;;;11.00;99.90;;;;;;4971451;28;20414;-85
2022/09/19 08:43:13;;;;;;;2.10;0.57;;;11.10;99.90;;;;;;4971197;28;20408;-86
2022/09/19 08:46:03;;;;;;;1.10;0.50;;;11.20;99.90;;;;;;4960103;28;20398;-84
2022/09/19 08:48:49;;;;;;;1.27;0.50;;;11.20;99.90;;;;;;4987882;28;20911;-84
2022/09/19 08:51:39;;;;;;;0.70;0.40;;;11.20;99.90;;;;;;4989333;28;20426;-85
2022/09/19 08:54:20;;;;;;;1.10;0.40;;;11.20;99.90;;;;;;4991502;28;20486;-85
2022/09/19 08:56:48;;;;;;;2.58;0.40;;;11.20;99.90;;;;;;4991202;28;20426;-86
2022/09/19 08:59:22;;;;;;;0.50;0.50;;;11.20;99.90;;;;;;4991234;28;20410;-86
2022/09/19 09:02:01;;;;;;;0.55;0.43;;;11.30;99.90;;;;;;4974890;28;20406;-83
2022/09/19 09:05:03;;;;;;;1.05;0.50;;;11.20;99.90;;;;;;4991452;28;20889;-86
2022/09/19 09:08:19;;;;;;;0.40;0.38;;;11.20;99.90;;;;;;4991453;28;20936;-85
2022/09/19 09:11:05;;;;;;;0.88;0.40;;;11.20;99.90;;;;;;4949009;28;20407;-84
2022/09/19 09:14:06;;;;;;;1.20;0.43;;;11.20;99.90;;;;;;4991238;28;20494;-86
2022/09/19 09:16:48;;;;;;;0.70;0.40;;;11.20;99.90;;;;;;4990843;28;20422;-85
2022/09/19 09:19:47;;;;;;;2.75;0.45;;;11.30;99.90;;;;;;4974720;28;20411;-85
2022/09/19 09:22:46;;;;;;;0.50;0.40;;;11.30;99.90;;;;;;4990931;28;20406;-85
2022/09/19 09:25:39;;;;;;;0.40;0.38;;;11.30;99.90;;;;;;4974717;28;20885;-84
2022/09/19 09:28:26;;;;;;;0.68;0.30;;;11.30;99.90;;;;;;4974670;28;20478;-85
2022/09/19 09:31:38;;;;;;;0.80;0.30;;;11.30;99.90;;;;;;4990617;28;20421;-85
2022/09/19 09:34:29;;;;;;;0.70;0.40;;;11.30;99.90;;;;;;4964787;28;20403;-86
2022/09/19 09:37:06;;;;;;;0.60;0.40;;;11.30;99.90;;;;;;4975516;28;20393;-85
2022/09/19 09:40:01;;;;;;;1.70;0.40;;;11.30;99.90;;;;;;4990409;28;20771;-85
2022/09/19 09:42:45;;;;;;;0.35;0.30;;;11.30;99.90;;;;;;4975100;28;20407;-84
2022/09/19 09:45:44;;;;;;;0.60;0.40;;;11.30;99.90;;;;;;4974136;28;20947;-84
2022/09/19 09:48:27;;;;;;;1.93;0.40;;;11.40;99.90;;;;;;4974240;28;20536;-85
2022/09/19 09:51:02;;;;;;;0.40;0.40;;;11.60;99.90;;;;;;4974075;28;20413;-84
2022/09/19 09:53:52;;;;;;;1.50;0.47;;;11.70;99.90;;;;;;4990285;28;20435;-85
2022/09/19 09:56:45;;;;;;;2.10;0.40;;;11.90;99.90;;;;;;4990218;28;20417;-86
2022/09/19 10:05:47;;;;;;;1.00;0.47;;;12.10;99.90;;;;;;4974029;28;20757;-86
2022/09/19 10:08:28;;;;;;;1.27;0.40;;;12.10;99.90;;;;;;4989936;28;20410;-84
2022/09/19 10:11:13;;;;;;;0.97;0.40;;;12.20;99.90;;;;;;4974962;28;20390;-83
2022/09/19 10:14:01;;;;;;;1.08;0.30;;;12.20;99.90;;;;;;4973939;28;20438;-85
2022/09/19 10:16:34;;;;;;;2.33;0.40;;;12.20;99.90;;;;;;4989958;28;20402;-85
2022/09/19 10:19:31;;;;;;;0.30;0.30;;;12.20;99.90;;;;;;4974397;28;20402;-85
2022/09/19 10:21:59;;;;;;;2.10;0.40;;;12.00;99.90;;;;;;4989607;28;20402;-85
2022/09/19 10:24:45;;;;;;;0.82;0.40;;;12.00;99.90;;;;;;4989648;28;20413;-85
2022/09/19 10:27:38;;;;;;;0.30;0.30;;;11.90;99.90;;;;;;4989639;28;20920;-86
2022/09/19 10:30:41;;;;;;;0.60;0.30;;;11.90;99.90;;;;;;4973275;28;20411;-84
2022/09/19 10:33:28;;;;;;;0.60;0.30;;;11.80;99.90;;;;;;4989562;28;20403;-85
2022/09/19 10:36:15;;;;;;;0.30;0.30;;;11.80;99.90;;;;;;4989619;28;20395;-84
2022/09/19 10:38:59;;;;;;;0.40;0.30;;;11.80;99.90;;;;;;4989355;28;20407;-85
2022/09/19 10:41:35;;;;;;;1.08;0.30;;;11.80;99.90;;;;;;4989469;28;20494;-84
2022/09/19 10:44:14;;;;;;;0.60;0.40;;;11.80;99.90;;;;;;4989668;28;20490;-84
2022/09/19 10:46:54;;;;;;;0.40;0.30;;;11.70;99.90;;;;;;4973561;28;20462;-84
2022/09/19 10:49:51;;;;;;;0.37;0.30;;;11.80;99.90;;;;;;4989661;28;20422;-84
2022/09/19 10:52:33;;;;;;;0.30;0.30;;;11.80;99.90;;;;;;4974136;28;20405;-85
2022/09/19 10:55:22;;;;;;;0.50;0.30;;;11.80;99.90;;;;;;4989096;28;20762;-85
2022/09/19 10:58:13;;;;;;;0.45;0.30;;;11.80;99.90;;;;;;4989141;28;20432;-87
2022/09/19 11:00:48;;;;;;;0.30;0.30;;;11.70;99.90;;;;;;4989025;28;20422;-84
2022/09/19 11:03:29;;;;;;;1.65;0.30;;;11.80;99.90;;;;;;4972746;28;20399;-85
2022/09/19 11:06:16;;;;;;;0.70;0.30;;;11.80;99.90;;;;;;4988862;28;20885;-85
2022/09/19 11:08:49;;;;;;;0.52;0.30;;;11.80;99.90;;;;;;4973828;28;20482;-87
2022/09/19 11:11:48;;;;;;;1.33;0.30;;;11.80;99.90;;;;;;4972254;28;20968;-86
2022/09/19 11:14:32;;;;;;;0.40;0.40;;;11.90;99.90;;;;;;4988652;28;20426;-86
2022/09/19 11:17:06;;;;;;;0.57;0.40;;;11.90;99.90;;;;;;4989351;28;20399;-84
2022/09/19 11:19:58;;;;;;;1.40;0.40;;;11.90;99.90;;;;;;4988379;28;20678;-85
2022/09/19 11:22:57;;;;;;;0.98;0.40;;;12.00;99.90;;;;;;4988639;28;20402;-86
2022/09/19 11:25:43;;;;;;;0.30;0.30;;;12.00;99.90;;;;;;4988572;28;20809;-86
2022/09/19 11:28:47;;;;;;;0.95;0.40;;;12.00;99.90;;;;;;4973690;28;20397;-86
2022/09/19 11:31:44;;;;;;;1.90;0.32;;;12.00;99.90;;;;;;4972423;28;20426;-86
2022/09/19 11:34:47;;;;;;;1.15;0.35;;;12.00;99.90;;;;;;4988351;28;20469;-84
2022/09/19 11:37:44;;;;;;;0.50;0.30;;;12.00;99.90;;;;;;4988394;28;20738;-86
2022/09/19 11:40:53;;;;;;;1.00;0.32;;;12.00;99.90;;;;;;4988293;28;20513;-86
2022/09/19 11:43:29;;;;;;;1.40;0.30;;;12.10;99.90;;;;;;4988700;28;20885;-87
2022/09/19 11:46:43;;;;;;;0.35;0.20;;;12.10;99.90;;;;;;4973455;28;20422;-85
2022/09/19 11:49:39;;;;;;;0.65;0.20;;;12.10;99.90;;;;;;4960579;28;20472;-84
2022/09/19 11:52:25;;;;;;;0.60;0.50;;;12.20;99.90;;;;;;4988213;28;20976;-87
2022/09/19 11:55:11;;;;;;;0.68;0.30;;;12.20;99.90;;;;;;4972018;28;20395;-87
2022/09/19 11:58:05;;;;;;;0.50;0.30;;;12.20;99.90;;;;;;4988166;28;20402;-86
2022/09/19 12:01:05;;;;;;;1.55;0.30;;;12.20;99.90;;;;;;4984013;28;20908;-85
2022/09/19 12:03:52;;;;;;;1.20;0.50;;;12.20;99.90;;;;;;4956574;28;20423;-87
2022/09/19 12:06:40;;;;;;;0.40;0.38;;;12.20;99.90;;;;;;4952645;29;20467;-87
2022/09/19 12:09:25;;;;;;;1.13;0.40;;;12.20;99.90;;;;;;4952537;28;20491;-86
2022/09/19 12:12:06;;;;;;;0.60;0.30;;;12.20;99.90;;;;;;4952540;29;20404;-86
2022/09/19 12:15:28;;;;;;;0.30;0.30;;;12.30;99.90;;;;;;4952563;29;20507;-86
2022/09/19 12:18:03;;;;;;;1.42;0.40;;;12.30;99.90;;;;;;4879061;29;20507;-85
2022/09/19 12:20:42;;;;;;;0.60;0.40;;;12.20;99.90;;;;;;4964018;28;20420;-87
2022/09/19 12:26:19;;;;;;;0.77;0.28;;;12.30;99.90;;;;;;4954027;28;20400;-86
2022/09/19 12:28:56;;;;;;;1.05;0.50;;;12.30;99.90;;;;;;4957778;28;20423;-86
2022/09/19 12:31:29;;;;;;;0.60;0.40;;;12.30;99.90;;;;;;4963931;28;20408;-86
2022/09/19 12:34:10;;;;;;;1.20;0.40;;;12.30;99.90;;;;;;4957428;29;20453;-86
2022/09/19 12:36:50;;;;;;;0.68;0.30;;;12.40;99.90;;;;;;4972312;28;20455;-86
2022/09/19 12:39:45;;;;;;;0.45;0.40;;;12.30;99.90;;;;;;4957292;29;20882;-86
2022/09/19 12:42:36;;;;;;;0.35;0.30;;;12.40;99.90;;;;;;4972020;28;20437;-87
2022/09/19 12:45:28;;;;;;;1.60;0.40;;;12.40;99.90;;;;;;4957200;29;20454;-86
2022/09/19 12:48:12;;;;;;;0.93;0.30;;;12.40;99.90;;;;;;4971933;28;20496;-86
2022/09/19 12:51:07;;;;;;;0.40;0.30;;;12.40;99.90;;;;;;4967398;28;20903;-87
2022/09/19 12:53:43;;;;;;;1.13;0.50;;;12.30;99.90;;;;;;4971738;28;20400;-87
2022/09/19 12:56:28;;;;;;;0.30;0.30;;;12.30;99.90;;;;;;4972146;28;20398;-87
2022/09/19 12:59:02;;;;;;;0.60;0.40;;;12.30;99.90;;;;;;4956931;29;20488;-86
2022/09/19 13:02:12;;;;;;;0.45;0.40;;;12.30;99.90;;;;;;4956803;29;20412;-87
2022/09/19 13:04:52;;;;;;;2.20;0.50;;;12.30;99.90;;;;;;4941071;28;20463;-85
2022/09/19 13:07:39;;;;;;;0.95;0.32;;;12.30;99.90;;;;;;4956809;29;20443;-86
2022/09/19 13:10:18;;;;;;;0.52;0.30;;;12.30;99.90;;;;;;4956772;28;20451;-85
2022/09/19 13:12:57;;;;;;;0.47;0.40;;;12.30;99.90;;;;;;4957004;29;20451;-88
2022/09/19 13:15:36;;;;;;;0.85;0.50;;;12.30;99.90;;;;;;4957045;29;20471;-86
2022/09/19 13:23:45;;;;;;;0.60;0.40;;;12.20;99.90;;;;;;4956475;28;20397;-84
2022/09/19 13:26:25;;;;;;;1.40;0.45;;;12.30;99.90;;;;;;4955325;29;20388;-85
2022/09/19 13:28:57;;;;;;;1.10;0.50;;;12.40;99.90;;;;;;4971360;28;20663;-86
2022/09/19 13:31:46;;;;;;;0.60;0.30;;;12.40;99.90;;;;;;4956727;29;20420;-86
2022/09/19 13:34:41;;;;;;;1.00;0.40;;;12.40;99.90;;;;;;4936208;29;20401;-87
2022/09/19 13:37:28;;;;;;;1.20;0.40;;;12.40;99.90;;;;;;4971019;28;20403;-86
2022/09/19 13:40:16;;;;;;;1.23;0.40;;;12.30;99.90;;;;;;4956085;29;20392;-86
2022/09/19 13:43:08;;;;;;;1.60;0.40;;;12.30;99.90;;;;;;4956324;29;20432;-84
2022/09/19 13:45:44;;;;;;;1.48;0.40;;;12.30;99.90;;;;;;4956125;29;20388;-87
2022/09/19 13:48:48;;;;;;;0.30;0.30;;;12.30;99.90;;;;;;4971243;28;20416;-86
2022/09/19 13:51:51;;;;;;;0.55;0.30;;;12.60;99.90;;;;;;4954661;29;20403;-84
2022/09/19 13:54:20;;;;;;;1.00;0.40;;;13.00;99.90;;;;;;4923888;28;20418;-85
2022/09/19 13:57:03;;;;;;;1.48;0.40;;;13.40;99.90;;;;;;4954496;29;20392;-85
2022/09/19 13:59:44;;;;;;;0.98;0.40;;;13.50;99.90;;;;;;4955768;29;20396;-82
2022/09/19 14:02:18;;;;;;;0.50;0.38;;;13.50;99.90;;;;;;4955575;29;20971;-84
2022/09/19 14:05:04;;;;;;;0.70;0.40;;;13.50;99.90;;;;;;4955618;29;20420;-86
2022/09/19 14:07:56;;;;;;;1.60;0.30;;;13.50;99.90;;;;;;4955977;28;20934;-84
2022/09/19 14:10:48;;;;;;;0.47;0.30;;;13.50;99.90;;;;;;4955248;29;20397;-82
2022/09/19 14:13:21;;;;;;;1.08;0.50;;;13.50;99.90;;;;;;4955500;28;20810;-84
2022/09/19 14:16:10;;;;;;;1.17;0.50;;;13.60;99.90;;;;;;4970229;28;20420;-84
2022/09/19 14:18:42;;;;;;;2.17;0.50;;;13.50;99.90;;;;;;4953961;29;20399;-84